Time;durP1;ratioP1;P1;durP2;ratioP2;P2;SDS_P1;SDS_P2;PMS_P1;PMS_P2;Temp;Humidity;BMP_temperature;BMP_pressure;BME280_temperature;BME280_humidity;BME280_pressure;Samples;Min_cycle;Max_cycle;Signal;HPM_P1;HPM_P2
2022/01/03 00:01:46;;;;;;;24.58;3.25;;;9.90;99.90;;;;;;5080743;28;20024;-74
2022/01/03 00:04:14;;;;;;;28.65;3.15;;;9.90;99.90;;;;;;5093379;28;20083;-74
2022/01/03 00:06:39;;;;;;;32.80;3.78;;;9.90;99.90;;;;;;5089701;28;20028;-74
2022/01/03 00:09:06;;;;;;;32.05;3.63;;;9.90;99.90;;;;;;5086574;28;20076;-74
2022/01/03 00:11:32;;;;;;;31.10;3.97;;;9.90;99.90;;;;;;5086259;28;20087;-75
2022/01/03 00:13:58;;;;;;;28.65;3.30;;;10.00;99.90;;;;;;5085908;28;20020;-75
2022/01/03 00:16:24;;;;;;;18.08;3.70;;;10.00;99.90;;;;;;5085187;28;20100;-75
2022/01/03 00:18:52;;;;;;;24.55;4.25;;;10.10;99.90;;;;;;5085958;28;20070;-75
2022/01/03 00:21:19;;;;;;;29.48;3.78;;;10.20;99.90;;;;;;5085207;28;20020;-75
2022/01/03 00:23:51;;;;;;;27.20;3.15;;;10.20;99.90;;;;;;5068247;28;20204;-75
2022/01/03 00:26:24;;;;;;;30.35;4.10;;;10.20;99.90;;;;;;5068539;28;20066;-75
2022/01/03 00:29:01;;;;;;;27.70;3.42;;;10.20;99.90;;;;;;5085299;28;20100;-75
2022/01/03 00:31:35;;;;;;;23.40;3.28;;;10.20;99.90;;;;;;5085645;28;20101;-74
2022/01/03 00:34:04;;;;;;;26.08;3.78;;;10.20;99.90;;;;;;5082275;28;20024;-74
2022/01/03 00:36:31;;;;;;;29.30;3.17;;;10.20;99.90;;;;;;5085920;28;20088;-75
2022/01/03 00:38:57;;;;;;;22.00;2.97;;;10.20;99.90;;;;;;5068237;28;20269;-74
2022/01/03 00:41:25;;;;;;;20.65;3.33;;;10.30;99.90;;;;;;5085761;28;20020;-74
2022/01/03 00:43:53;;;;;;;35.28;3.85;;;10.40;99.90;;;;;;5085602;28;20036;-74
2022/01/03 00:46:19;;;;;;;28.77;3.85;;;10.40;99.90;;;;;;5084444;28;20091;-75
2022/01/03 00:48:45;;;;;;;27.77;3.65;;;10.40;99.90;;;;;;5084668;28;20027;-75
2022/01/03 00:51:14;;;;;;;30.73;3.58;;;10.40;99.90;;;;;;5086726;28;20051;-75
2022/01/03 00:53:41;;;;;;;28.27;2.65;;;10.50;99.90;;;;;;5087013;28;20050;-74
2022/01/03 00:56:16;;;;;;;22.67;3.13;;;10.50;99.90;;;;;;5087164;28;20343;-74
2022/01/03 00:59:02;;;;;;;29.13;3.47;;;10.50;99.90;;;;;;5085785;28;20032;-74
2022/01/03 01:01:29;;;;;;;30.50;3.63;;;10.50;99.90;;;;;;5085495;28;20242;-75
2022/01/03 01:03:55;;;;;;;20.67;3.22;;;10.50;99.90;;;;;;5085091;28;20211;-74
2022/01/03 01:06:23;;;;;;;25.75;3.08;;;10.60;99.90;;;;;;5085322;28;20021;-75
2022/01/03 01:08:55;;;;;;;27.85;3.22;;;10.50;99.90;;;;;;5084129;28;20319;-75
2022/01/03 01:11:27;;;;;;;32.08;4.10;;;10.50;99.90;;;;;;5067587;28;20025;-74
2022/01/03 01:13:53;;;;;;;;;;;10.40;99.90;;;;;;5085557;28;20020;-75
2022/01/03 01:16:19;;;;;;;28.67;4.72;;;10.40;99.90;;;;;;5084949;28;19935;-75
2022/01/03 01:18:45;;;;;;;28.58;3.20;;;10.30;99.90;;;;;;5084913;28;20070;-75
2022/01/03 01:21:11;;;;;;;28.00;3.47;;;10.30;99.90;;;;;;5083694;28;20021;-74
2022/01/03 01:23:41;;;;;;;24.35;3.05;;;10.20;99.90;;;;;;5084805;28;20025;-75
2022/01/03 01:28:52;;;;;;;27.95;3.40;;;10.20;99.90;;;;;;5056101;28;20473;-75
2022/01/03 01:31:21;;;;;;;28.35;4.47;;;10.30;99.90;;;;;;5084059;28;20386;-74
2022/01/03 01:33:52;;;;;;;19.25;2.47;;;10.30;99.90;;;;;;5081261;28;20106;-74
2022/01/03 01:36:20;;;;;;;25.08;3.60;;;10.30;99.90;;;;;;5083743;28;20021;-74
2022/01/03 01:38:50;;;;;;;17.17;2.90;;;10.40;99.90;;;;;;5083660;28;20043;-76
2022/01/03 01:41:18;;;;;;;21.08;2.72;;;10.40;99.90;;;;;;5083328;28;20027;-76
2022/01/03 01:43:47;;;;;;;31.40;3.33;;;10.40;99.90;;;;;;5084290;28;20200;-76
2022/01/03 01:46:19;;;;;;;23.42;3.53;;;10.40;99.90;;;;;;5083417;28;20036;-75
2022/01/03 01:48:48;;;;;;;23.67;2.97;;;10.40;99.90;;;;;;5067093;28;20016;-74
2022/01/03 01:51:16;;;;;;;22.92;3.10;;;10.50;99.90;;;;;;5066685;28;20028;-74
2022/01/03 01:53:45;;;;;;;24.60;2.88;;;10.50;99.90;;;;;;5083241;28;20028;-75
2022/01/03 01:56:19;;;;;;;32.95;3.55;;;10.50;99.90;;;;;;5084265;28;20303;-75
2022/01/03 01:59:19;;;;;;;28.58;4.05;;;10.50;99.90;;;;;;5067232;28;20017;-75
2022/01/03 02:02:00;;;;;;;24.98;3.05;;;10.50;99.90;;;;;;5069152;28;20062;-75
2022/01/03 02:05:06;;;;;;;29.30;3.72;;;10.50;99.90;;;;;;5082358;28;20083;-74
2022/01/03 02:07:57;;;;;;;26.88;3.00;;;10.50;99.90;;;;;;5072076;28;20031;-75
2022/01/03 02:10:29;;;;;;;24.90;3.43;;;10.40;99.90;;;;;;5070033;28;20039;-75
2022/01/03 02:12:56;;;;;;;29.30;3.60;;;10.30;99.90;;;;;;5083051;28;20261;-75
2022/01/03 02:15:22;;;;;;;33.00;5.07;;;10.20;99.90;;;;;;5083996;28;20025;-74
2022/01/03 02:17:49;;;;;;;26.63;3.53;;;10.10;99.90;;;;;;5083990;28;20047;-75
2022/01/03 02:20:18;;;;;;;29.05;3.97;;;10.10;99.90;;;;;;5082893;28;20349;-74
2022/01/03 02:22:44;;;;;;;27.52;3.85;;;10.10;99.90;;;;;;5082910;28;20330;-74
2022/01/03 02:25:12;;;;;;;31.15;3.45;;;10.00;99.90;;;;;;5083963;28;20020;-75
2022/01/03 02:27:38;;;;;;;31.50;3.65;;;10.00;99.90;;;;;;5084085;28;20031;-75
2022/01/03 02:30:08;;;;;;;24.35;3.13;;;10.00;99.90;;;;;;5084000;28;20020;-74
2022/01/03 02:32:34;;;;;;;30.05;3.40;;;9.90;99.90;;;;;;5066313;28;20059;-75
2022/01/03 02:34:59;;;;;;;32.00;3.88;;;9.90;99.90;;;;;;5080341;28;20022;-75
2022/01/03 02:37:25;;;;;;;36.47;4.80;;;9.90;99.90;;;;;;5083945;28;20239;-75
2022/01/03 02:39:52;;;;;;;22.50;3.45;;;9.90;99.90;;;;;;5082758;28;20223;-76
2022/01/03 02:42:23;;;;;;;25.60;3.17;;;9.90;99.90;;;;;;5083873;28;20199;-74
2022/01/03 02:45:08;;;;;;;27.90;3.60;;;9.90;99.90;;;;;;5082520;28;20246;-74
2022/01/03 02:47:34;;;;;;;33.33;3.35;;;9.90;99.90;;;;;;5083691;28;20024;-74
2022/01/03 02:50:00;;;;;;;19.88;2.92;;;9.90;99.90;;;;;;5083462;28;20303;-75
2022/01/03 02:52:26;;;;;;;20.38;3.13;;;9.90;99.90;;;;;;5083844;28;20091;-74
2022/01/03 02:54:52;;;;;;;26.85;2.92;;;9.90;99.90;;;;;;5065605;28;20031;-75
2022/01/03 02:57:23;;;;;;;24.33;3.50;;;9.90;99.90;;;;;;5083789;28;20032;-75
2022/01/03 03:00:00;;;;;;;22.40;3.05;;;9.90;99.90;;;;;;5089625;28;20035;-75
2022/01/03 03:02:27;;;;;;;28.92;4.10;;;9.80;99.90;;;;;;5098702;28;20043;-75
2022/01/03 03:04:58;;;;;;;20.17;2.72;;;9.80;99.90;;;;;;5081038;28;20017;-74
2022/01/03 03:07:27;;;;;;;23.35;3.58;;;9.80;99.90;;;;;;5098791;28;20016;-75
2022/01/03 03:09:53;;;;;;;33.50;4.90;;;9.80;99.90;;;;;;5081619;28;20024;-74
2022/01/03 03:12:19;;;;;;;32.55;3.35;;;9.70;99.90;;;;;;5091604;28;20099;-74
2022/01/03 03:14:46;;;;;;;24.80;3.20;;;9.70;99.90;;;;;;5082544;28;20062;-74
2022/01/03 03:17:12;;;;;;;27.00;3.63;;;9.70;99.90;;;;;;5083375;28;20197;-74
2022/01/03 03:19:59;;;;;;;31.90;3.97;;;9.70;99.90;;;;;;5083406;28;20079;-74
2022/01/03 03:22:29;;;;;;;27.27;3.50;;;9.70;99.90;;;;;;5068528;28;20020;-75
2022/01/03 03:25:17;;;;;;;34.00;3.83;;;9.70;99.90;;;;;;5049220;28;20024;-75
2022/01/03 03:27:46;;;;;;;25.80;4.70;;;9.70;99.90;;;;;;5068631;28;20025;-74
2022/01/03 03:30:20;;;;;;;30.98;4.05;;;9.70;99.90;;;;;;5082123;28;20321;-74
2022/01/03 03:32:48;;;;;;;32.33;3.65;;;9.70;99.90;;;;;;5084446;28;20175;-75
2022/01/03 03:35:14;;;;;;;34.55;3.97;;;9.70;99.90;;;;;;5084705;28;20019;-75
2022/01/03 03:37:40;;;;;;;27.40;3.13;;;9.70;99.90;;;;;;5068712;28;20393;-74
2022/01/03 03:40:06;;;;;;;32.35;3.50;;;9.70;99.90;;;;;;5086979;28;20083;-75
2022/01/03 03:42:33;;;;;;;35.08;4.93;;;9.70;99.90;;;;;;5086035;28;20062;-74
2022/01/03 03:44:59;;;;;;;30.75;3.50;;;9.70;99.90;;;;;;5086839;28;20043;-75
2022/01/03 03:47:24;;;;;;;30.77;4.20;;;9.60;99.90;;;;;;5086298;28;20367;-73
2022/01/03 03:49:50;;;;;;;24.05;3.25;;;9.60;99.90;;;;;;5086807;28;20043;-74
2022/01/03 03:52:16;;;;;;;23.50;3.63;;;9.60;99.90;;;;;;5085576;28;20050;-75
2022/01/03 03:54:41;;;;;;;20.55;2.60;;;9.60;99.90;;;;;;5086778;28;20092;-75
2022/01/03 03:57:08;;;;;;;31.77;3.10;;;9.60;99.90;;;;;;5086573;28;20024;-74
2022/01/03 03:59:35;;;;;;;27.55;3.45;;;9.50;99.90;;;;;;5086486;28;20042;-75
2022/01/03 04:02:00;;;;;;;28.88;3.50;;;9.50;99.90;;;;;;5085474;28;20025;-74
2022/01/03 04:04:27;;;;;;;23.05;2.75;;;9.50;99.90;;;;;;5085011;28;20044;-75
2022/01/03 04:06:52;;;;;;;30.45;3.50;;;9.50;99.90;;;;;;5086412;28;20020;-75
2022/01/03 04:09:18;;;;;;;24.00;3.40;;;9.50;99.90;;;;;;5086560;28;20188;-74
2022/01/03 04:11:44;;;;;;;31.35;4.07;;;9.50;99.90;;;;;;5086048;28;20347;-75
2022/01/03 04:14:10;;;;;;;37.47;3.85;;;9.40;99.90;;;;;;5068536;28;20039;-74
2022/01/03 04:16:37;;;;;;;35.00;4.05;;;9.50;99.90;;;;;;5085081;28;20264;-75
2022/01/03 04:19:04;;;;;;;26.13;3.15;;;9.50;99.90;;;;;;5086340;28;20091;-75
2022/01/03 04:21:30;;;;;;;22.80;3.80;;;9.60;99.90;;;;;;5085077;28;20020;-75
2022/01/03 04:23:55;;;;;;;29.88;3.83;;;9.60;99.90;;;;;;5085120;28;20031;-75
2022/01/03 04:26:21;;;;;;;28.45;3.88;;;9.70;99.90;;;;;;5086058;28;20199;-74
2022/01/03 04:28:47;;;;;;;25.75;3.58;;;9.80;99.90;;;;;;5086201;28;20043;-75
2022/01/03 04:31:13;;;;;;;29.45;3.33;;;9.80;99.90;;;;;;5085261;28;20075;-75
2022/01/03 04:33:39;;;;;;;28.48;3.33;;;9.80;99.90;;;;;;5085213;28;20031;-74
2022/01/03 04:36:06;;;;;;;30.60;3.50;;;9.80;99.90;;;;;;5084146;28;20021;-74
2022/01/03 04:38:32;;;;;;;26.60;3.40;;;9.80;99.90;;;;;;5084744;28;20036;-74
2022/01/03 04:40:59;;;;;;;28.48;3.65;;;9.80;99.90;;;;;;5085898;28;20123;-74
2022/01/03 04:43:25;;;;;;;27.05;2.90;;;9.80;99.90;;;;;;5084170;28;20031;-74
2022/01/03 04:45:51;;;;;;;37.53;3.40;;;9.80;99.90;;;;;;5085815;28;20345;-74
2022/01/03 04:48:17;;;;;;;32.75;3.72;;;9.80;99.90;;;;;;5085393;28;20021;-75
2022/01/03 04:50:43;;;;;;;35.75;3.60;;;9.80;99.90;;;;;;5085555;28;20031;-75
2022/01/03 04:53:09;;;;;;;26.45;3.58;;;9.80;99.90;;;;;;5084629;28;20083;-75
2022/01/03 04:55:35;;;;;;;28.55;4.32;;;9.80;99.90;;;;;;5085776;28;20021;-74
2022/01/03 04:58:01;;;;;;;21.55;3.17;;;9.80;99.90;;;;;;5084752;28;20040;-74
2022/01/03 05:00:26;;;;;;;26.77;2.88;;;9.80;99.90;;;;;;5085460;28;20020;-74
2022/01/03 05:02:52;;;;;;;24.83;4.07;;;9.80;99.90;;;;;;5084751;28;20025;-74
2022/01/03 05:05:18;;;;;;;41.00;4.35;;;9.80;99.90;;;;;;5084143;28;20020;-75
2022/01/03 05:07:43;;;;;;;30.77;4.25;;;9.80;99.90;;;;;;5083873;28;20016;-75
2022/01/03 05:10:09;;;;;;;28.92;3.60;;;9.80;99.90;;;;;;5085200;28;20063;-75
2022/01/03 05:12:35;;;;;;;26.23;2.95;;;9.90;99.90;;;;;;5084098;28;20028;-75
2022/01/03 05:15:00;;;;;;;27.45;3.50;;;9.80;99.90;;;;;;5085226;28;20016;-74
2022/01/03 05:17:29;;;;;;;27.17;3.83;;;9.80;99.90;;;;;;5083934;28;20039;-74
2022/01/03 05:19:55;;;;;;;29.27;3.45;;;9.80;99.90;;;;;;5083638;28;20025;-75
2022/01/03 05:22:20;;;;;;;28.10;3.25;;;9.80;99.90;;;;;;5085328;28;20024;-75
2022/01/03 05:24:46;;;;;;;28.17;3.40;;;9.80;99.90;;;;;;5085019;28;20020;-75
2022/01/03 05:27:12;;;;;;;28.60;3.83;;;9.80;99.90;;;;;;5083895;28;20096;-74
2022/01/03 05:29:38;;;;;;;28.20;3.13;;;9.80;99.90;;;;;;5084769;28;20300;-74
2022/01/03 05:32:04;;;;;;;29.23;4.32;;;9.90;99.90;;;;;;5083397;28;20228;-74
2022/01/03 05:34:29;;;;;;;16.30;3.00;;;9.90;99.90;;;;;;5084488;28;20035;-74
2022/01/03 05:36:55;;;;;;;30.40;2.83;;;10.00;99.90;;;;;;5081761;28;20044;-74
2022/01/03 05:39:21;;;;;;;30.63;4.57;;;10.00;99.90;;;;;;5084551;28;20207;-75
2022/01/03 05:41:47;;;;;;;35.95;3.40;;;10.00;99.90;;;;;;5083435;28;20028;-74
2022/01/03 05:44:14;;;;;;;19.10;2.58;;;10.00;99.90;;;;;;5083635;28;20211;-75
2022/01/03 05:46:40;;;;;;;29.20;3.63;;;10.00;99.90;;;;;;5084324;28;20036;-74
2022/01/03 05:49:07;;;;;;;24.40;3.58;;;10.00;99.90;;;;;;5083438;28;20062;-74
2022/01/03 05:51:34;;;;;;;24.10;3.08;;;9.90;99.90;;;;;;5083214;28;20035;-75
2022/01/03 05:53:59;;;;;;;19.20;3.60;;;9.90;99.90;;;;;;5084164;28;20099;-75
2022/01/03 05:56:25;;;;;;;22.67;2.92;;;9.80;99.90;;;;;;5083792;28;20020;-74
2022/01/03 05:58:51;;;;;;;31.02;4.47;;;9.80;99.90;;;;;;5083501;28;20075;-74
2022/01/03 06:01:21;;;;;;;27.27;3.35;;;9.80;99.90;;;;;;5084287;28;20082;-75
2022/01/03 06:03:46;;;;;;;23.30;2.95;;;9.80;99.90;;;;;;5088468;28;20044;-75
2022/01/03 06:06:20;;;;;;;31.65;3.47;;;9.80;99.90;;;;;;5097644;28;20042;-74
2022/01/03 06:08:46;;;;;;;23.73;3.20;;;9.70;99.90;;;;;;5095112;28;20027;-74
2022/01/03 06:11:12;;;;;;;21.38;2.88;;;9.70;99.90;;;;;;5094296;28;20024;-74
2022/01/03 06:13:37;;;;;;;31.02;3.30;;;9.70;99.90;;;;;;5091732;28;20043;-75
2022/01/03 06:16:03;;;;;;;25.60;3.20;;;9.90;99.90;;;;;;5085247;28;20198;-75
2022/01/03 06:18:29;;;;;;;22.73;3.17;;;9.90;99.90;;;;;;5066069;28;20361;-75
2022/01/03 06:20:55;;;;;;;21.35;2.88;;;9.90;99.90;;;;;;5082785;28;20239;-74
2022/01/03 06:23:20;;;;;;;27.13;2.97;;;10.00;99.90;;;;;;5084014;28;20062;-75
2022/01/03 06:25:47;;;;;;;27.88;2.95;;;10.00;99.90;;;;;;5084286;28;20051;-75
2022/01/03 06:28:13;;;;;;;26.35;3.72;;;10.00;99.90;;;;;;5082733;28;20035;-75
2022/01/03 06:30:40;;;;;;;27.55;3.95;;;10.00;99.90;;;;;;5083825;28;20028;-76
2022/01/03 06:33:09;;;;;;;33.95;3.53;;;9.90;99.90;;;;;;5082111;28;20219;-74
2022/01/03 06:35:35;;;;;;;26.80;3.13;;;9.80;99.90;;;;;;5082875;28;20016;-76
2022/01/03 06:38:03;;;;;;;23.30;3.67;;;9.80;99.90;;;;;;5063814;28;20101;-75
2022/01/03 06:40:28;;;;;;;32.80;4.15;;;9.70;99.90;;;;;;5082751;28;20326;-75
2022/01/03 06:42:54;;;;;;;26.25;3.50;;;9.70;99.90;;;;;;5083603;28;20056;-75
2022/01/03 06:45:21;;;;;;;29.05;3.28;;;9.70;99.90;;;;;;5082535;28;20093;-75
2022/01/03 06:47:50;;;;;;;28.38;3.00;;;9.70;99.90;;;;;;5082543;28;20058;-74
2022/01/03 06:50:16;;;;;;;25.50;2.78;;;9.70;99.90;;;;;;5083392;28;20099;-75
2022/01/03 06:52:42;;;;;;;22.27;2.95;;;9.70;99.90;;;;;;5083875;28;20227;-75
2022/01/03 06:55:08;;;;;;;26.80;4.30;;;9.70;99.90;;;;;;5083540;28;20084;-75
2022/01/03 06:57:34;;;;;;;27.73;3.28;;;9.70;99.90;;;;;;5083753;28;20062;-75
2022/01/03 06:59:59;;;;;;;31.85;3.50;;;9.70;99.90;;;;;;5083494;28;20241;-75
2022/01/03 07:02:25;;;;;;;26.92;3.00;;;9.80;99.90;;;;;;5082185;28;20326;-75
2022/01/03 07:04:51;;;;;;;20.92;3.35;;;9.80;99.90;;;;;;5082910;28;20028;-75
2022/01/03 07:07:16;;;;;;;27.67;3.58;;;9.80;99.90;;;;;;5084331;28;20031;-75
2022/01/03 07:09:42;;;;;;;29.15;3.10;;;9.80;99.90;;;;;;5087514;28;20020;-74
2022/01/03 07:12:08;;;;;;;29.85;3.63;;;9.80;99.90;;;;;;5087529;28;20028;-75
2022/01/03 07:20:09;;;;;;;22.00;3.60;;;9.80;99.90;;;;;;5086095;28;20219;-75
2022/01/03 07:22:39;;;;;;;23.65;3.10;;;9.90;99.90;;;;;;5085800;28;20369;-74
2022/01/03 07:25:07;;;;;;;25.77;2.90;;;9.90;99.90;;;;;;5086471;28;20031;-74
2022/01/03 07:27:33;;;;;;;24.20;2.60;;;10.00;99.90;;;;;;5086230;28;20024;-75
2022/01/03 07:29:59;;;;;;;20.85;3.13;;;10.00;99.90;;;;;;5086889;28;20023;-74
2022/01/03 07:32:24;;;;;;;27.15;3.03;;;10.00;99.90;;;;;;5086614;28;20031;-75
2022/01/03 07:34:50;;;;;;;24.77;3.15;;;10.00;99.90;;;;;;5085614;28;20028;-76
2022/01/03 07:37:16;;;;;;;26.67;3.22;;;10.00;99.90;;;;;;5086764;28;20049;-75
2022/01/03 07:39:42;;;;;;;19.20;2.67;;;10.00;99.90;;;;;;5084140;28;20027;-75
2022/01/03 07:42:08;;;;;;;19.00;2.25;;;10.00;99.90;;;;;;5087009;28;20012;-75
2022/01/03 07:44:34;;;;;;;22.77;2.72;;;10.10;99.90;;;;;;5085542;28;20012;-75
2022/01/03 07:47:00;;;;;;;18.35;3.03;;;10.10;99.90;;;;;;5086718;28;20024;-74
2022/01/03 07:49:26;;;;;;;25.17;3.85;;;10.10;99.90;;;;;;5086593;28;20028;-75
2022/01/03 07:51:52;;;;;;;20.02;2.08;;;10.10;99.90;;;;;;5086373;28;20332;-74
2022/01/03 07:54:17;;;;;;;15.75;2.33;;;10.10;99.90;;;;;;5085772;28;20033;-75
2022/01/03 07:56:43;;;;;;;21.13;2.58;;;10.10;99.90;;;;;;5086563;28;20095;-76
2022/01/03 07:59:09;;;;;;;20.88;2.90;;;10.20;99.90;;;;;;5086739;28;20027;-75
2022/01/03 08:01:35;;;;;;;16.05;2.33;;;10.10;99.90;;;;;;5086217;28;20021;-75
2022/01/03 08:04:00;;;;;;;12.23;2.50;;;10.10;99.90;;;;;;5086113;28;20367;-74
2022/01/03 08:06:26;;;;;;;19.65;2.13;;;10.10;99.90;;;;;;5086774;28;20012;-74
2022/01/03 08:08:52;;;;;;;20.05;2.35;;;10.00;99.90;;;;;;5086492;28;20070;-76
2022/01/03 08:11:17;;;;;;;13.00;2.10;;;9.90;99.90;;;;;;5086108;28;20050;-75
2022/01/03 08:13:43;;;;;;;11.13;1.88;;;9.90;99.90;;;;;;5086421;28;20295;-75
2022/01/03 08:16:09;;;;;;;17.63;2.55;;;9.90;99.90;;;;;;5086169;28;20227;-74
2022/01/03 08:18:35;;;;;;;19.52;2.40;;;9.90;99.90;;;;;;5084520;28;20314;-75
2022/01/03 08:21:00;;;;;;;22.08;2.85;;;9.90;99.90;;;;;;5084999;28;20043;-75
2022/01/03 08:23:26;;;;;;;18.33;2.22;;;9.90;99.90;;;;;;5085119;28;20292;-75
2022/01/03 08:25:52;;;;;;;17.73;1.92;;;9.90;99.90;;;;;;5086166;28;20087;-75
2022/01/03 08:28:18;;;;;;;17.85;2.30;;;9.90;99.90;;;;;;5085872;28;20020;-75
2022/01/03 08:30:44;;;;;;;20.55;2.50;;;9.90;99.90;;;;;;5085628;28;20039;-75
2022/01/03 08:33:09;;;;;;;15.65;2.05;;;10.00;99.90;;;;;;5084553;28;20023;-74
2022/01/03 08:35:35;;;;;;;14.70;2.13;;;9.90;99.90;;;;;;5086004;28;20029;-75
2022/01/03 08:38:04;;;;;;;13.55;2.10;;;9.90;99.90;;;;;;5085967;28;20052;-75
2022/01/03 08:40:31;;;;;;;15.43;2.35;;;9.90;99.90;;;;;;5084046;28;20303;-75
2022/01/03 08:42:57;;;;;;;12.35;1.70;;;10.00;99.90;;;;;;5085853;28;20079;-75
2022/01/03 08:45:23;;;;;;;16.98;3.13;;;9.90;99.90;;;;;;5085569;28;20035;-75
2022/01/03 08:47:49;;;;;;;21.05;2.55;;;9.90;99.90;;;;;;5084774;28;20017;-75
2022/01/03 08:50:17;;;;;;;17.17;2.30;;;9.90;99.90;;;;;;5086418;28;20189;-74
2022/01/03 08:52:45;;;;;;;15.15;2.50;;;9.90;99.90;;;;;;5085827;28;20047;-75
2022/01/03 08:55:11;;;;;;;13.95;2.00;;;9.90;99.90;;;;;;5086560;28;20099;-74
2022/01/03 08:57:38;;;;;;;12.98;1.98;;;9.90;99.90;;;;;;5087456;28;20084;-74
2022/01/03 09:00:05;;;;;;;11.55;1.80;;;10.00;99.90;;;;;;5086612;28;20383;-75
2022/01/03 09:02:30;;;;;;;16.67;2.78;;;10.00;99.90;;;;;;5084300;28;20306;-75
2022/01/03 09:04:56;;;;;;;18.60;2.28;;;10.00;99.90;;;;;;5082611;28;20080;-76
2022/01/03 09:07:22;;;;;;;15.70;1.75;;;10.00;99.90;;;;;;5096616;28;20065;-74
2022/01/03 09:09:47;;;;;;;13.73;1.92;;;10.00;99.90;;;;;;5099090;28;20031;-75
2022/01/03 09:12:13;;;;;;;19.48;2.83;;;10.00;99.90;;;;;;5099015;28;20020;-77
2022/01/03 09:14:39;;;;;;;18.08;2.15;;;10.00;99.90;;;;;;5096355;28;20020;-76
2022/01/03 09:17:05;;;;;;;13.15;1.90;;;10.00;99.90;;;;;;5111233;28;20012;-76
2022/01/03 09:19:31;;;;;;;16.05;1.65;;;10.10;99.90;;;;;;5093018;28;20028;-75
2022/01/03 09:22:13;;;;;;;11.95;1.45;;;10.10;99.90;;;;;;5090243;28;20040;-76
2022/01/03 09:24:46;;;;;;;11.00;2.05;;;10.20;99.90;;;;;;5101320;28;20023;-75
2022/01/03 09:30:03;;;;;;;14.38;1.90;;;10.10;99.90;;;;;;5083397;28;20245;-73
2022/01/03 09:32:29;;;;;;;14.20;1.63;;;10.20;99.90;;;;;;5083652;28;20024;-75
2022/01/03 09:34:57;;;;;;;12.13;2.63;;;10.20;99.90;;;;;;5084033;28;20024;-76
2022/01/03 09:37:23;;;;;;;13.73;1.80;;;10.20;99.90;;;;;;5084363;28;20064;-76
2022/01/03 09:39:50;;;;;;;14.98;2.08;;;10.30;99.90;;;;;;5083151;28;20024;-75
2022/01/03 09:42:26;;;;;;;11.88;2.00;;;10.30;99.90;;;;;;5081844;28;20024;-74
2022/01/03 09:44:51;;;;;;;12.10;1.92;;;10.30;99.90;;;;;;5067511;28;20020;-77
2022/01/03 09:47:19;;;;;;;14.40;1.92;;;10.30;99.90;;;;;;5083020;28;20020;-75
2022/01/03 09:49:46;;;;;;;13.73;2.15;;;10.40;99.90;;;;;;5084293;28;20021;-74
2022/01/03 09:52:14;;;;;;;9.35;1.48;;;10.40;99.90;;;;;;5082888;28;20070;-75
2022/01/03 09:54:41;;;;;;;17.65;1.88;;;10.50;99.90;;;;;;5084454;28;20039;-77
2022/01/03 09:57:07;;;;;;;19.40;2.47;;;10.40;99.90;;;;;;5084122;28;20024;-74
2022/01/03 09:59:34;;;;;;;16.77;2.13;;;10.50;99.90;;;;;;5083910;28;20066;-74
2022/01/03 10:02:03;;;;;;;14.45;2.78;;;10.50;99.90;;;;;;5099754;28;20020;-76
2022/01/03 10:04:28;;;;;;;18.10;1.90;;;10.60;99.90;;;;;;5082424;28;20312;-78
2022/01/03 10:06:54;;;;;;;14.10;2.15;;;10.60;99.90;;;;;;5066550;28;20051;-74
2022/01/03 10:09:22;;;;;;;9.80;1.70;;;10.60;99.90;;;;;;5083472;28;20020;-76
2022/01/03 10:11:48;;;;;;;11.95;2.00;;;10.50;99.90;;;;;;5083874;28;20035;-76
2022/01/03 10:14:15;;;;;;;19.85;2.63;;;10.60;99.90;;;;;;5082883;28;20025;-76
2022/01/03 10:16:42;;;;;;;17.38;2.60;;;10.60;99.90;;;;;;5082805;28;20024;-75
2022/01/03 10:19:08;;;;;;;15.95;2.03;;;10.70;99.90;;;;;;5082023;28;20031;-74
2022/01/03 10:21:38;;;;;;;13.23;2.30;;;10.70;99.90;;;;;;5082934;28;20020;-76
2022/01/03 10:24:04;;;;;;;16.70;1.90;;;10.80;99.90;;;;;;5082763;28;20183;-75
2022/01/03 10:26:31;;;;;;;14.18;1.67;;;10.90;99.90;;;;;;5082863;28;20020;-77
2022/01/03 10:29:19;;;;;;;14.77;1.80;;;10.80;99.90;;;;;;5083561;28;20020;-75
2022/01/03 10:31:46;;;;;;;13.20;2.15;;;10.80;99.90;;;;;;5082784;28;20028;-76
2022/01/03 10:34:14;;;;;;;14.00;2.00;;;10.80;99.90;;;;;;5082203;28;20024;-77
2022/01/03 10:36:42;;;;;;;12.43;1.52;;;10.80;99.90;;;;;;5082721;28;20023;-74
2022/01/03 10:39:26;;;;;;;16.30;2.13;;;10.80;99.90;;;;;;5081906;28;20319;-75
2022/01/03 10:42:11;;;;;;;17.83;2.20;;;10.80;99.90;;;;;;5085298;28;20013;-76
2022/01/03 10:44:40;;;;;;;17.58;2.20;;;10.80;99.90;;;;;;5090329;28;20024;-76
2022/01/03 10:47:08;;;;;;;21.40;2.50;;;10.80;99.90;;;;;;5089414;28;20043;-75
2022/01/03 10:49:36;;;;;;;16.60;1.75;;;10.80;99.90;;;;;;5088891;28;20028;-75
2022/01/03 10:52:22;;;;;;;13.00;1.52;;;10.80;99.90;;;;;;5089478;28;20361;-76
2022/01/03 10:55:11;;;;;;;14.63;2.25;;;10.80;99.90;;;;;;5090333;28;20068;-77
2022/01/03 10:57:58;;;;;;;16.67;2.05;;;10.80;99.90;;;;;;5072203;28;20028;-75
2022/01/03 11:00:34;;;;;;;19.40;2.72;;;10.80;99.90;;;;;;5090060;28;20039;-76
2022/01/03 11:03:36;;;;;;;17.05;2.30;;;10.90;99.90;;;;;;5105479;28;20054;-75
2022/01/03 11:06:13;;;;;;;14.07;1.93;;;10.90;99.90;;;;;;5089154;28;20085;-77
2022/01/03 11:11:45;;;;;;;14.00;1.90;;;11.00;99.90;;;;;;5089055;28;20095;-74
2022/01/03 11:14:30;;;;;;;15.80;1.92;;;11.10;99.90;;;;;;5089058;28;20020;-75
2022/01/03 11:16:57;;;;;;;12.05;1.90;;;11.10;99.90;;;;;;5069607;28;20298;-75
2022/01/03 11:19:39;;;;;;;11.57;2.10;;;11.20;99.90;;;;;;5089910;28;20047;-76
2022/01/03 11:22:05;;;;;;;10.60;2.13;;;11.20;99.90;;;;;;5090229;28;20017;-77
2022/01/03 11:24:32;;;;;;;18.85;2.63;;;11.20;99.90;;;;;;5088936;28;20263;-75
2022/01/03 11:26:58;;;;;;;17.30;2.50;;;11.20;99.90;;;;;;5090478;28;20029;-75
2022/01/03 11:29:28;;;;;;;19.00;2.40;;;11.20;99.90;;;;;;5090069;28;20052;-76
2022/01/03 11:31:54;;;;;;;16.80;2.72;;;11.20;99.90;;;;;;5090076;28;20029;-75
2022/01/03 11:34:24;;;;;;;16.08;2.38;;;11.20;99.90;;;;;;5071938;28;20048;-76
2022/01/03 11:36:50;;;;;;;14.93;2.10;;;11.10;99.90;;;;;;5088994;28;20052;-76
2022/01/03 11:39:20;;;;;;;15.05;2.45;;;11.10;99.90;;;;;;5089082;28;20115;-76
2022/01/03 11:41:46;;;;;;;16.92;2.50;;;11.10;99.90;;;;;;5087235;28;20301;-76
2022/01/03 11:44:16;;;;;;;19.67;3.97;;;11.10;99.90;;;;;;5089655;28;20044;-74
2022/01/03 11:46:44;;;;;;;16.85;2.80;;;11.10;99.90;;;;;;5089008;28;20036;-77
2022/01/03 11:49:10;;;;;;;19.10;3.58;;;11.10;99.90;;;;;;5055778;28;20289;-76
2022/01/03 11:51:38;;;;;;;22.50;3.75;;;11.20;99.90;;;;;;5088862;28;20075;-76
2022/01/03 11:54:06;;;;;;;20.70;3.05;;;11.20;99.90;;;;;;5085961;28;20025;-76
2022/01/03 11:56:36;;;;;;;19.73;3.17;;;11.30;99.90;;;;;;5069296;28;20039;-73
2022/01/03 11:59:24;;;;;;;20.98;3.20;;;11.30;99.90;;;;;;5085440;28;20024;-75
2022/01/03 12:04:40;;;;;;;23.25;4.05;;;11.30;99.90;;;;;;5085197;28;20027;-75
2022/01/03 12:07:10;;;;;;;17.95;2.33;;;11.40;99.90;;;;;;5085680;28;20016;-76
2022/01/03 12:09:38;;;;;;;15.00;3.00;;;11.40;99.90;;;;;;5086750;28;20020;-75
2022/01/03 12:12:06;;;;;;;18.27;2.28;;;11.50;99.90;;;;;;5094588;28;20042;-77
2022/01/03 12:14:43;;;;;;;19.75;2.78;;;11.50;99.90;;;;;;5098741;28;20020;-79
2022/01/03 12:17:11;;;;;;;19.45;2.78;;;11.50;99.90;;;;;;5097113;28;20092;-75
2022/01/03 12:19:39;;;;;;;11.98;2.28;;;11.50;99.90;;;;;;5093677;28;20021;-77
2022/01/03 12:22:24;;;;;;;14.63;2.38;;;11.50;99.90;;;;;;5090395;28;20104;-75
2022/01/03 12:25:23;;;;;;;26.05;2.47;;;11.60;99.90;;;;;;5086295;28;20135;-76
2022/01/03 12:27:55;;;;;;;15.85;2.20;;;11.50;99.90;;;;;;5073107;28;20087;-76
2022/01/03 12:30:23;;;;;;;19.42;2.63;;;11.50;99.90;;;;;;5084919;28;20046;-76
2022/01/03 12:33:10;;;;;;;17.75;2.60;;;11.50;99.90;;;;;;5085067;28;20044;-75
2022/01/03 12:35:37;;;;;;;17.52;2.80;;;11.50;99.90;;;;;;5084856;28;20025;-76
2022/01/03 12:38:14;;;;;;;15.40;2.60;;;11.50;99.90;;;;;;5085935;28;20076;-76
2022/01/03 12:40:55;;;;;;;26.67;3.20;;;11.60;99.90;;;;;;5084814;28;20052;-77
2022/01/03 12:43:45;;;;;;;16.95;2.70;;;11.50;99.90;;;;;;5083336;28;20104;-76
2022/01/03 12:46:17;;;;;;;22.42;2.50;;;11.60;99.90;;;;;;5084445;28;20207;-74
2022/01/03 12:48:43;;;;;;;20.52;2.67;;;11.60;99.90;;;;;;5084863;28;20024;-76
2022/01/03 12:51:12;;;;;;;16.77;2.25;;;11.60;99.90;;;;;;5085621;28;20047;-76
2022/01/03 12:53:41;;;;;;;14.48;2.00;;;11.60;99.90;;;;;;5085801;28;20021;-76
2022/01/03 12:56:11;;;;;;;17.13;2.88;;;11.60;99.90;;;;;;5084469;28;20024;-74
2022/01/03 12:58:41;;;;;;;18.83;2.47;;;11.60;99.90;;;;;;5084614;28;20139;-76
2022/01/03 13:01:22;;;;;;;17.33;2.80;;;11.60;99.90;;;;;;5085439;28;20016;-76
2022/01/03 13:03:50;;;;;;;20.33;2.55;;;11.70;99.90;;;;;;5084183;28;20202;-77
2022/01/03 13:06:34;;;;;;;15.38;2.25;;;11.70;99.90;;;;;;5084160;28;20024;-76